createdAt,value
2019-06-20T00:04:32.417Z,25.09
2019-06-20T00:09:36.644Z,24.90
2019-06-20T00:14:40.935Z,24.84
2019-06-20T00:19:45.321Z,25.00
2019-06-20T00:24:49.556Z,24.91
2019-06-20T00:29:53.802Z,24.93
2019-06-20T00:34:58.069Z,24.79
2019-06-20T00:40:02.310Z,24.25
2019-06-20T00:45:07.993Z,24.05
2019-06-20T00:50:12.536Z,24.27
2019-06-20T00:55:17.133Z,24.17
2019-06-20T01:00:21.768Z,24.29
2019-06-20T01:05:26.000Z,24.27
2019-06-20T01:10:30.250Z,24.26
2019-06-20T01:15:34.514Z,24.05
2019-06-20T01:20:38.745Z,23.65
2019-06-20T01:25:44.728Z,23.64
2019-06-20T01:30:48.986Z,23.77
2019-06-20T01:35:53.219Z,23.59
2019-06-20T01:40:57.468Z,23.30
2019-06-20T01:46:01.772Z,23.10
2019-06-20T01:51:06.021Z,22.80
2019-06-20T01:56:10.260Z,22.70
2019-06-20T02:01:14.489Z,22.74
2019-06-20T02:06:18.760Z,22.44
2019-06-20T02:11:23.026Z,22.26
2019-06-20T02:16:27.268Z,22.04
2019-06-20T02:21:31.494Z,22.06
2019-06-20T02:26:35.835Z,21.87
2019-06-20T02:31:40.107Z,21.61
2019-06-20T02:36:44.352Z,21.83
2019-06-20T02:41:48.582Z,21.81
2019-06-20T02:46:52.849Z,21.55
2019-06-20T02:51:57.707Z,21.71
2019-06-20T02:57:01.928Z,21.62
2019-06-20T03:02:06.152Z,21.46
2019-06-20T03:07:10.367Z,21.36
2019-06-20T03:12:14.639Z,21.31
2019-06-20T03:17:18.877Z,21.29
2019-06-20T03:22:23.113Z,21.47
2019-06-20T03:27:27.358Z,21.43
2019-06-20T03:32:31.616Z,21.27
2019-06-20T03:37:35.957Z,21.47
2019-06-20T03:42:40.182Z,21.59
2019-06-20T03:47:44.405Z,21.78
2019-06-20T03:52:50.728Z,21.76
2019-06-20T03:57:54.961Z,21.92
2019-06-20T04:02:59.218Z,21.89
2019-06-20T04:08:03.569Z,21.88
2019-06-20T04:13:07.884Z,21.90
2019-06-20T04:18:12.130Z,21.87
2019-06-20T04:23:16.353Z,22.07
2019-06-20T04:28:20.620Z,22.28
2019-06-20T04:33:24.869Z,22.42
2019-06-20T04:38:29.088Z,22.49
2019-06-20T04:43:33.330Z,22.60
2019-06-20T04:48:37.560Z,22.68
2019-06-20T04:53:41.806Z,22.82
2019-06-20T04:58:46.040Z,22.85
2019-06-20T05:03:50.311Z,22.96
2019-06-20T05:08:54.513Z,23.17
2019-06-20T05:13:58.776Z,23.03
2019-06-20T05:19:03.006Z,23.53
2019-06-20T05:24:07.447Z,24.17
2019-06-20T05:29:11.671Z,23.94
2019-06-20T05:34:15.918Z,23.39
2019-06-20T05:39:20.155Z,23.83
2019-06-20T05:44:24.388Z,23.80
2019-06-20T05:49:28.640Z,23.88
2019-06-20T05:54:32.870Z,24.26
2019-06-20T05:59:37.131Z,24.71
2019-06-20T06:04:41.424Z,24.69
2019-06-20T06:09:45.782Z,24.68
2019-06-20T06:14:50.027Z,24.57
2019-06-20T06:19:54.321Z,24.01
2019-06-20T06:24:58.562Z,23.80
2019-06-20T06:30:06.854Z,23.20
2019-06-20T06:35:11.598Z,22.95
2019-06-20T06:40:16.459Z,22.21
2019-06-20T06:45:21.026Z,21.36
2019-06-20T06:50:26.779Z,20.78
2019-06-20T06:55:31.033Z,20.75
2019-06-20T07:00:35.432Z,20.75
2019-06-20T07:05:39.662Z,20.83
2019-06-20T07:10:43.932Z,20.98
2019-06-20T07:15:48.204Z,21.08
2019-06-20T07:20:52.417Z,21.49
2019-06-20T07:25:56.657Z,21.67
2019-06-20T07:31:00.890Z,22.10
2019-06-20T07:36:05.611Z,22.16
2019-06-20T07:41:10.031Z,22.51
2019-06-20T07:46:14.264Z,22.38
2019-06-20T07:51:18.495Z,22.14
2019-06-20T07:56:22.724Z,22.02
2019-06-20T08:01:27.372Z,21.80
2019-06-20T08:06:31.595Z,21.74
2019-06-20T08:11:35.864Z,21.95
2019-06-20T08:16:40.153Z,22.04
2019-06-20T08:21:44.515Z,22.16
2019-06-20T08:26:48.938Z,22.43
2019-06-20T08:31:53.396Z,22.36
2019-06-20T08:36:58.924Z,22.74
2019-06-20T08:42:04.333Z,22.95
2019-06-20T08:47:08.748Z,23.37
2019-06-20T08:52:12.994Z,24.06
2019-06-20T08:57:17.305Z,24.14
2019-06-20T09:02:21.577Z,23.75
2019-06-20T09:07:25.859Z,23.38
2019-06-20T09:12:30.142Z,23.74
2019-06-20T09:17:34.403Z,23.53
2019-06-20T09:22:38.911Z,23.55
2019-06-20T09:27:43.348Z,23.18
2019-06-20T09:32:47.554Z,23.14
2019-06-20T09:37:51.902Z,23.30
2019-06-20T09:42:58.765Z,23.53
2019-06-20T09:48:03.067Z,23.79
2019-06-20T09:53:07.456Z,23.91
2019-06-20T09:58:11.703Z,23.56
2019-06-20T10:03:15.971Z,23.91
2019-06-20T10:08:20.210Z,24.11
2019-06-20T10:13:24.577Z,23.99
2019-06-20T10:18:28.781Z,23.97
2019-06-20T10:23:33.016Z,24.90
2019-06-20T10:28:37.306Z,25.67
2019-06-20T10:33:41.556Z,24.31
2019-06-20T10:38:46.517Z,24.68
2019-06-20T10:43:51.743Z,24.36
2019-06-20T10:48:56.064Z,24.30
2019-06-20T10:54:00.323Z,24.85
2019-06-20T10:59:04.819Z,25.29
2019-06-20T11:04:09.254Z,25.70
2019-06-20T11:09:13.481Z,26.26
2019-06-20T11:14:17.710Z,26.89
2019-06-20T11:19:21.939Z,26.49
2019-06-20T11:24:26.157Z,25.78
2019-06-20T11:29:30.418Z,26.33
2019-06-20T11:34:34.644Z,26.98
2019-06-20T11:39:38.943Z,26.66
2019-06-20T11:44:43.288Z,27.65
2019-06-20T11:49:47.568Z,27.18
2019-06-20T11:54:51.831Z,28.17
2019-06-20T11:59:56.085Z,29.06
2019-06-20T12:05:05.399Z,29.46
2019-06-20T12:10:11.067Z,28.38
2019-06-20T12:15:16.221Z,28.32
2019-06-20T12:20:20.843Z,27.17
2019-06-20T12:25:25.563Z,27.05
2019-06-20T12:30:29.893Z,28.52
2019-06-20T12:35:34.185Z,28.86
2019-06-20T12:40:40.561Z,29.68
2019-06-20T12:45:44.459Z,30.14
2019-06-20T12:50:49.568Z,28.38
2019-06-20T12:55:53.938Z,29.97
2019-06-20T13:00:58.241Z,30.54
2019-06-20T13:06:02.485Z,31.80
2019-06-20T13:11:06.700Z,31.08
2019-06-20T13:16:10.945Z,32.46
2019-06-20T13:21:15.178Z,31.21
2019-06-20T13:26:19.417Z,30.10
2019-06-20T13:31:23.674Z,30.32
2019-06-20T13:36:27.914Z,28.36
2019-06-20T13:41:32.204Z,27.28
2019-06-20T13:46:36.458Z,27.49
2019-06-20T13:51:41.947Z,26.81
2019-06-20T13:56:47.489Z,26.62
2019-06-20T14:02:05.868Z,26.29
2019-06-20T14:06:57.792Z,25.86
2019-06-20T14:12:02.025Z,25.83
2019-06-20T14:17:06.263Z,25.75
2019-06-20T14:22:10.532Z,25.24
2019-06-20T14:27:14.780Z,25.41
2019-06-20T14:32:22.323Z,25.48
2019-06-20T14:37:25.019Z,25.36
2019-06-20T14:42:29.258Z,24.83
2019-06-20T14:47:33.509Z,24.82
2019-06-20T14:52:37.739Z,25.06
2019-06-20T14:57:44.589Z,25.16
2019-06-20T15:02:51.931Z,24.91
2019-06-20T15:07:55.784Z,24.99
2019-06-20T15:12:59.905Z,26.64
2019-06-20T15:18:04.150Z,30.18
2019-06-20T15:23:08.525Z,30.38
2019-06-20T15:28:12.824Z,31.41
2019-06-20T15:33:17.074Z,32.44
2019-06-20T15:38:21.369Z,32.14
2019-06-20T15:43:25.608Z,32.32
2019-06-20T15:48:29.864Z,33.03
2019-06-20T15:53:34.074Z,33.07
2019-06-20T15:58:38.318Z,34.17
2019-06-20T16:03:42.547Z,34.40
2019-06-20T16:08:46.797Z,33.85
2019-06-20T16:13:51.067Z,32.23
2019-06-20T16:18:55.282Z,31.23
2019-06-20T16:23:59.575Z,32.14
2019-06-20T16:29:03.835Z,33.77
2019-06-20T16:34:08.047Z,33.20
2019-06-20T16:39:12.287Z,31.82
2019-06-20T16:44:16.521Z,34.01
2019-06-20T16:49:20.751Z,33.21
2019-06-20T16:54:24.993Z,33.79
2019-06-20T16:59:29.225Z,32.26
2019-06-20T17:04:33.545Z,31.26
2019-06-20T17:09:38.926Z,30.11
2019-06-20T17:14:43.193Z,28.90
2019-06-20T17:19:47.533Z,28.00
2019-06-20T17:24:51.961Z,27.59
2019-06-20T17:29:56.337Z,27.75
2019-06-20T17:35:01.119Z,27.99
2019-06-20T17:40:06.636Z,27.75
2019-06-20T17:45:11.706Z,27.90
2019-06-20T17:50:16.350Z,27.78
2019-06-20T17:55:21.101Z,27.32
2019-06-20T18:00:26.103Z,27.53
2019-06-20T18:05:30.575Z,27.69
2019-06-20T18:10:34.853Z,27.41
2019-06-20T18:15:39.089Z,27.17
2019-06-20T18:20:43.582Z,26.85
2019-06-20T18:25:47.783Z,27.09
2019-06-20T18:30:52.193Z,27.03
2019-06-20T18:35:56.386Z,26.92
2019-06-20T18:41:00.625Z,27.00
2019-06-20T18:46:04.901Z,26.94
2019-06-20T18:51:09.133Z,26.61
2019-06-20T18:56:13.395Z,26.43
2019-06-20T19:01:17.625Z,26.46
2019-06-20T19:06:35.152Z,26.80
2019-06-20T19:11:28.310Z,26.77
2019-06-20T19:16:32.558Z,26.78
2019-06-20T19:21:36.822Z,26.18
2019-06-20T19:26:41.069Z,26.12
2019-06-20T19:31:45.323Z,26.24
2019-06-20T19:36:49.553Z,26.45
2019-06-20T19:41:53.807Z,26.40
2019-06-20T19:46:58.087Z,26.00
2019-06-20T19:52:02.369Z,25.99
2019-06-20T19:57:06.675Z,25.04
2019-06-20T20:02:10.933Z,25.15
2019-06-20T20:07:15.276Z,25.49
2019-06-20T20:12:19.524Z,25.62
2019-06-20T20:17:23.786Z,25.80
2019-06-20T20:22:28.035Z,25.70
2019-06-20T20:27:32.272Z,25.51
2019-06-20T20:32:36.530Z,25.52
2019-06-20T20:37:40.803Z,25.50
2019-06-20T20:42:45.099Z,25.53
2019-06-20T20:47:50.095Z,25.41
2019-06-20T20:52:54.338Z,25.39
2019-06-20T20:57:58.643Z,25.30
2019-06-20T21:03:02.875Z,25.27
2019-06-20T21:08:07.205Z,25.29
2019-06-20T21:13:11.441Z,25.22
2019-06-20T21:18:15.681Z,25.08
2019-06-20T21:23:19.927Z,24.92
2019-06-20T21:28:24.155Z,24.86
2019-06-20T21:33:29.295Z,24.80
2019-06-20T21:38:33.681Z,24.79
2019-06-20T21:43:37.889Z,24.74
2019-06-20T21:48:42.122Z,24.65
2019-06-20T21:53:46.347Z,24.65
2019-06-20T21:58:50.618Z,24.64
2019-06-20T22:03:54.868Z,24.62
2019-06-20T22:08:59.128Z,24.37
2019-06-20T22:14:03.365Z,23.67
2019-06-20T22:19:07.632Z,23.41
2019-06-20T22:24:11.868Z,22.67
2019-06-20T22:29:16.113Z,22.45
2019-06-20T22:34:20.398Z,22.83
2019-06-20T22:39:24.630Z,22.63
2019-06-20T22:44:28.885Z,22.18
2019-06-20T22:49:33.145Z,22.00
2019-06-20T22:54:37.368Z,21.70
2019-06-20T22:59:41.657Z,21.66
2019-06-20T23:04:45.894Z,21.51
2019-06-20T23:09:50.180Z,21.73
2019-06-20T23:14:54.438Z,21.80
2019-06-20T23:19:58.716Z,21.66
2019-06-20T23:25:03.024Z,21.65
2019-06-20T23:30:07.591Z,22.01
2019-06-20T23:35:12.032Z,21.84
2019-06-20T23:40:17.528Z,21.72
2019-06-20T23:45:22.058Z,21.56
2019-06-20T23:50:26.292Z,21.61
2019-06-20T23:55:30.560Z,21.21
